createdAt,value
2022-08-18T00:00:04.610Z,15.57
2022-08-18T00:02:33.553Z,15.73
2022-08-18T00:05:03.891Z,14.32
2022-08-18T00:07:35.615Z,15.48
2022-08-18T00:10:04.361Z,15.25
2022-08-18T00:12:34.207Z,15.35
2022-08-18T00:15:04.865Z,15.30
2022-08-18T00:17:33.307Z,14.93
2022-08-18T00:20:02.141Z,15.27
2022-08-18T00:22:32.046Z,15.43
2022-08-18T00:25:00.558Z,15.02
2022-08-18T00:27:32.844Z,14.77
2022-08-18T00:30:02.599Z,14.88
2022-08-18T00:32:33.813Z,15.73
2022-08-18T00:35:07.579Z,15.85
2022-08-18T00:37:37.684Z,15.80
2022-08-18T00:40:06.773Z,15.63
2022-08-18T00:42:35.382Z,15.30
2022-08-18T00:45:04.688Z,16.55
2022-08-18T00:47:42.497Z,15.65
2022-08-18T00:50:15.044Z,15.20
2022-08-18T00:52:46.715Z,15.55
2022-08-18T00:55:15.169Z,14.77
2022-08-18T00:57:43.890Z,15.82
2022-08-18T01:00:13.807Z,15.75
2022-08-18T01:02:44.745Z,14.73
2022-08-18T01:05:16.111Z,14.88
2022-08-18T01:07:47.227Z,15.05
2022-08-18T01:10:17.302Z,15.30
2022-08-18T01:12:47.144Z,15.55
2022-08-18T01:15:29.522Z,15.30
2022-08-18T01:18:16.880Z,15.00
2022-08-18T01:21:05.288Z,14.70
2022-08-18T01:23:35.357Z,14.35
2022-08-18T01:26:04.381Z,14.68
2022-08-18T01:28:34.002Z,15.45
2022-08-18T01:31:03.645Z,15.25
2022-08-18T01:33:33.482Z,14.93
2022-08-18T01:36:04.432Z,15.10
2022-08-18T01:38:33.267Z,15.23
2022-08-18T01:41:26.869Z,15.00
2022-08-18T01:43:51.765Z,15.27
2022-08-18T01:46:20.493Z,15.32
2022-08-18T01:48:49.486Z,14.80
2022-08-18T01:51:19.934Z,14.63
2022-08-18T01:53:48.858Z,14.45
2022-08-18T01:56:18.734Z,14.15
2022-08-18T01:58:48.269Z,13.93
2022-08-18T02:01:17.182Z,15.15
2022-08-18T02:03:49.307Z,14.98
2022-08-18T02:06:18.760Z,13.95
2022-08-18T02:09:01.135Z,14.85
2022-08-18T02:11:30.972Z,14.18
2022-08-18T02:13:59.409Z,14.30
2022-08-18T02:16:27.898Z,13.77
2022-08-18T02:18:56.577Z,14.40
2022-08-18T02:21:25.073Z,14.60
2022-08-18T02:23:54.176Z,14.23
2022-08-18T02:26:23.321Z,14.43
2022-08-18T02:28:53.456Z,14.18
2022-08-18T02:31:24.061Z,13.95
2022-08-18T02:33:53.353Z,14.57
2022-08-18T02:36:23.994Z,15.52
2022-08-18T02:38:56.631Z,15.20
2022-08-18T02:41:29.320Z,15.75
2022-08-18T02:44:00.009Z,15.30
2022-08-18T02:46:29.881Z,14.82
2022-08-18T02:48:59.722Z,15.98
2022-08-18T02:51:28.162Z,14.30
2022-08-18T02:53:59.335Z,13.75
2022-08-18T02:56:32.960Z,14.50
2022-08-18T02:59:12.978Z,13.88
2022-08-18T03:01:43.530Z,14.70
2022-08-18T03:04:12.915Z,13.98
2022-08-18T03:06:42.394Z,15.27
2022-08-18T03:09:13.141Z,15.73
2022-08-18T03:11:41.698Z,16.70
2022-08-18T03:14:13.851Z,15.43
2022-08-18T03:16:52.932Z,16.17
2022-08-18T03:19:23.713Z,16.15
2022-08-18T03:21:52.910Z,15.18
2022-08-18T03:24:22.785Z,15.80
2022-08-18T03:26:52.998Z,15.63
2022-08-18T03:29:26.540Z,14.93
2022-08-18T03:31:57.958Z,15.52
2022-08-18T03:34:26.429Z,14.80
2022-08-18T03:36:55.024Z,16.15
2022-08-18T03:39:25.092Z,16.25
2022-08-18T03:41:58.324Z,15.43
2022-08-18T03:44:31.514Z,15.32
2022-08-18T03:47:00.277Z,14.50
2022-08-18T03:49:28.754Z,14.50
2022-08-18T03:52:00.979Z,14.05
2022-08-18T03:54:33.445Z,13.85
2022-08-18T03:57:02.225Z,13.93
2022-08-18T03:59:33.394Z,14.40
2022-08-18T04:02:04.852Z,14.18
2022-08-18T04:04:33.526Z,14.30
2022-08-18T04:07:04.790Z,13.25
2022-08-18T04:09:33.680Z,13.48
2022-08-18T04:12:05.944Z,13.77
2022-08-18T04:14:37.523Z,13.93
2022-08-18T04:17:06.070Z,12.95
2022-08-18T04:19:34.822Z,14.13
2022-08-18T04:22:04.482Z,14.35
2022-08-18T04:24:34.521Z,13.77
2022-08-18T04:27:05.929Z,13.52
2022-08-18T04:29:34.505Z,13.70
2022-08-18T04:32:05.097Z,13.52
2022-08-18T04:34:34.135Z,13.43
2022-08-18T04:37:03.005Z,13.18
2022-08-18T04:39:32.013Z,13.18
2022-08-18T04:42:01.679Z,13.68
2022-08-18T04:44:30.146Z,13.70
2022-08-18T04:46:58.634Z,14.70
2022-08-18T04:49:28.505Z,13.38
2022-08-18T04:52:34.068Z,14.68
2022-08-18T04:55:03.856Z,13.48
2022-08-18T04:57:35.115Z,14.32
2022-08-18T05:00:04.292Z,14.63
2022-08-18T05:02:33.207Z,15.20
2022-08-18T05:05:04.044Z,15.40
2022-08-18T05:07:32.770Z,15.18
2022-08-18T05:10:01.672Z,14.65
2022-08-18T05:12:30.235Z,14.85
2022-08-18T05:14:58.701Z,13.90
2022-08-18T05:17:30.492Z,14.25
2022-08-18T05:20:00.152Z,14.43
2022-08-18T05:22:31.767Z,14.75
2022-08-18T05:25:01.059Z,13.43
2022-08-18T05:27:33.397Z,13.07
2022-08-18T05:30:02.466Z,12.55
2022-08-18T05:32:47.126Z,11.45
2022-08-18T05:35:20.351Z,10.98
2022-08-18T05:37:57.153Z,9.65
2022-08-18T05:40:26.080Z,9.40
2022-08-18T05:42:57.522Z,8.77
2022-08-18T05:45:26.237Z,9.55
2022-08-18T05:48:00.012Z,8.13
2022-08-18T05:50:29.476Z,9.43
2022-08-18T05:53:00.408Z,8.82
2022-08-18T05:55:48.857Z,9.00
2022-08-18T05:58:20.882Z,8.45
2022-08-18T06:00:57.485Z,8.35
2022-08-18T06:03:29.743Z,8.73
2022-08-18T06:06:15.919Z,8.25
2022-08-18T06:08:47.393Z,7.63
2022-08-18T06:11:22.472Z,7.75
2022-08-18T06:13:57.791Z,7.32
2022-08-18T06:16:31.370Z,7.70
2022-08-18T06:19:03.950Z,7.50
2022-08-18T06:21:39.099Z,7.32
2022-08-18T06:24:11.979Z,7.85
2022-08-18T06:26:45.338Z,7.50
2022-08-18T06:29:23.078Z,7.18
2022-08-18T06:31:55.506Z,7.50
2022-08-18T06:34:34.764Z,6.88
2022-08-18T06:37:08.315Z,7.78
2022-08-18T06:39:44.458Z,7.68
2022-08-18T06:42:13.080Z,7.25
2022-08-18T06:44:45.638Z,8.30
2022-08-18T06:47:17.241Z,7.50
2022-08-18T06:49:48.448Z,7.53
2022-08-18T06:52:21.164Z,7.25
2022-08-18T06:54:51.726Z,6.90
2022-08-18T06:57:27.981Z,7.65
2022-08-18T06:59:57.806Z,7.57
2022-08-18T07:02:28.782Z,8.00
2022-08-18T07:05:07.054Z,7.35
2022-08-18T07:07:40.367Z,6.30
2022-08-18T07:10:29.826Z,6.55
2022-08-18T07:13:09.299Z,6.57
2022-08-18T07:15:38.097Z,6.88
2022-08-18T07:18:07.673Z,6.35
2022-08-18T07:20:43.953Z,6.72
2022-08-18T07:23:22.765Z,6.25
2022-08-18T07:25:52.705Z,6.00
2022-08-18T07:28:30.646Z,6.07
2022-08-18T07:31:17.091Z,6.30
2022-08-18T07:33:49.820Z,5.88
2022-08-18T07:36:19.643Z,6.28
2022-08-18T07:38:51.610Z,6.15
2022-08-18T07:41:22.925Z,6.15
2022-08-18T07:44:01.666Z,5.93
2022-08-18T07:46:36.515Z,5.68
2022-08-18T07:49:06.468Z,5.78
2022-08-18T07:51:43.041Z,6.47
2022-08-18T07:54:37.661Z,5.78
2022-08-18T07:57:07.092Z,5.03
2022-08-18T07:59:41.673Z,5.68
2022-08-18T08:02:19.197Z,5.35
2022-08-18T08:04:50.827Z,5.00
2022-08-18T08:07:24.285Z,5.78
2022-08-18T08:09:56.549Z,5.55
2022-08-18T08:12:31.139Z,5.32
2022-08-18T08:15:07.804Z,5.03
2022-08-18T08:17:41.129Z,5.80
2022-08-18T08:20:19.550Z,5.53
2022-08-18T08:22:55.109Z,5.38
2022-08-18T08:25:45.635Z,5.10
2022-08-18T08:28:18.994Z,5.53
2022-08-18T08:30:52.189Z,5.40
2022-08-18T08:33:25.161Z,5.70
2022-08-18T08:35:56.700Z,4.82
2022-08-18T08:38:42.315Z,5.15
2022-08-18T08:41:15.134Z,5.70
2022-08-18T08:43:45.558Z,5.43
2022-08-18T08:46:17.412Z,4.82
2022-08-18T08:48:48.843Z,5.28
2022-08-18T08:51:30.218Z,5.68
2022-08-18T08:54:02.422Z,5.45
2022-08-18T08:56:32.793Z,5.25
2022-08-18T08:59:04.777Z,5.45
2022-08-18T09:01:38.740Z,5.85
2022-08-18T09:04:15.038Z,5.15
2022-08-18T09:06:51.057Z,5.68
2022-08-18T09:09:26.408Z,5.72
2022-08-18T09:12:07.225Z,5.32
2022-08-18T09:14:47.453Z,5.35
2022-08-18T09:17:28.298Z,5.85
2022-08-18T09:20:12.510Z,5.75
2022-08-18T09:22:48.973Z,6.07
2022-08-18T09:25:33.125Z,5.95
2022-08-18T09:28:11.412Z,5.32
2022-08-18T09:30:47.575Z,5.82
2022-08-18T09:33:25.787Z,5.82
2022-08-18T09:35:59.752Z,5.38
2022-08-18T09:38:48.909Z,5.38
2022-08-18T09:41:35.781Z,6.05
2022-08-18T09:44:21.379Z,5.95
2022-08-18T09:46:57.371Z,5.88
2022-08-18T09:49:51.127Z,5.85
2022-08-18T09:52:38.966Z,5.97
2022-08-18T09:55:09.672Z,6.00
2022-08-18T09:57:42.441Z,5.50
2022-08-18T10:03:31.002Z,5.85
2022-08-18T10:06:12.576Z,5.93
2022-08-18T10:08:51.152Z,5.65
2022-08-18T10:11:24.350Z,5.90
2022-08-18T10:14:02.398Z,5.72
2022-08-18T10:16:57.713Z,6.38
2022-08-18T10:19:33.652Z,6.03
2022-08-18T10:22:10.361Z,6.03
2022-08-18T10:24:41.053Z,6.07
2022-08-18T10:27:14.676Z,6.35
2022-08-18T10:29:51.538Z,5.78
2022-08-18T10:32:25.057Z,5.55
2022-08-18T10:34:55.584Z,5.47
2022-08-18T10:37:28.389Z,6.50
2022-08-18T10:39:59.427Z,5.65
2022-08-18T10:42:31.614Z,6.05
2022-08-18T10:45:06.574Z,5.88
2022-08-18T10:47:35.456Z,6.20
2022-08-18T10:50:06.178Z,6.28
2022-08-18T10:53:24.090Z,6.13
2022-08-18T10:55:48.538Z,5.82
2022-08-18T10:58:24.020Z,5.55
2022-08-18T11:01:04.126Z,5.53
2022-08-18T11:03:52.012Z,5.55
2022-08-18T11:06:26.278Z,5.93
2022-08-18T11:08:58.312Z,5.50
2022-08-18T11:11:37.088Z,5.70
2022-08-18T11:14:14.741Z,5.45
2022-08-18T11:16:50.348Z,5.20
2022-08-18T11:19:23.655Z,4.97
2022-08-18T11:21:53.516Z,5.18
2022-08-18T11:24:25.321Z,5.20
2022-08-18T11:26:55.326Z,5.60
2022-08-18T11:29:26.967Z,5.50
2022-08-18T11:31:59.463Z,5.18
2022-08-18T11:34:32.791Z,5.72
2022-08-18T11:37:02.752Z,5.50
2022-08-18T11:39:45.295Z,5.50
2022-08-18T11:45:09.132Z,5.55
2022-08-18T11:47:39.262Z,5.95
2022-08-18T11:50:13.915Z,6.50
2022-08-18T11:52:53.756Z,6.55
2022-08-18T11:55:30.466Z,6.30
2022-08-18T11:58:00.393Z,6.50
2022-08-18T12:00:55.433Z,6.22
2022-08-18T12:03:31.896Z,6.32
2022-08-18T12:06:02.865Z,6.72
2022-08-18T12:11:29.239Z,6.28
2022-08-18T12:14:31.897Z,6.95
2022-08-18T12:16:54.076Z,6.65
2022-08-18T12:19:24.239Z,6.40
2022-08-18T12:21:54.637Z,6.80
2022-08-18T12:24:26.429Z,6.72
2022-08-18T12:27:00.890Z,6.57
2022-08-18T12:29:33.238Z,6.35
2022-08-18T12:32:18.080Z,6.47
2022-08-18T12:35:07.652Z,6.88
2022-08-18T12:40:26.987Z,6.20
2022-08-18T12:42:56.984Z,6.32
2022-08-18T12:45:27.249Z,6.90
2022-08-18T12:47:56.195Z,6.80
2022-08-18T12:50:31.850Z,6.03
2022-08-18T12:53:03.647Z,6.68
2022-08-18T12:55:33.723Z,5.78
2022-08-18T12:58:05.264Z,6.38
2022-08-18T13:00:34.771Z,5.88
2022-08-18T13:03:04.871Z,5.97
2022-08-18T13:05:33.463Z,6.45
2022-08-18T13:08:04.231Z,5.72
2022-08-18T13:10:45.621Z,6.00
2022-08-18T13:13:17.246Z,6.28
2022-08-18T13:15:55.364Z,5.90
2022-08-18T13:18:28.627Z,5.88
2022-08-18T13:20:58.421Z,6.43
2022-08-18T13:23:28.442Z,5.80
2022-08-18T13:25:59.298Z,6.68
2022-08-18T13:28:33.596Z,5.95
2022-08-18T13:31:05.570Z,6.78
2022-08-18T13:33:57.078Z,6.32
2022-08-18T13:36:22.696Z,7.28
2022-08-18T13:38:54.551Z,6.80
2022-08-18T13:43:54.962Z,6.93
2022-08-18T13:46:31.053Z,7.22
2022-08-18T13:49:03.359Z,6.80
2022-08-18T13:51:32.466Z,7.57
2022-08-18T13:54:30.420Z,7.38
2022-08-18T13:56:51.354Z,7.40
2022-08-18T13:59:22.750Z,7.20
2022-08-18T14:01:53.015Z,8.00
2022-08-18T14:04:22.356Z,7.45
2022-08-18T14:06:56.788Z,7.50
2022-08-18T14:09:27.651Z,7.70
2022-08-18T14:12:05.273Z,7.35
2022-08-18T14:14:35.140Z,7.28
2022-08-18T14:17:04.791Z,7.47
2022-08-18T14:19:53.176Z,7.25
2022-08-18T14:22:42.022Z,6.93
2022-08-18T14:25:29.098Z,6.93
2022-08-18T14:27:59.069Z,6.80
2022-08-18T14:30:33.947Z,7.50
2022-08-18T14:33:02.597Z,6.72
2022-08-18T14:36:03.945Z,7.35
2022-08-18T14:38:19.837Z,7.10
2022-08-18T14:40:49.556Z,7.85
2022-08-18T14:43:22.031Z,7.95
2022-08-18T14:45:58.218Z,8.30
2022-08-18T14:48:27.527Z,7.90
2022-08-18T14:50:58.790Z,8.07
2022-08-18T14:53:33.408Z,8.13
2022-08-18T14:56:02.721Z,8.20
2022-08-18T14:58:33.421Z,7.75
2022-08-18T15:01:10.422Z,7.70
2022-08-18T15:03:40.168Z,7.43
2022-08-18T15:06:10.522Z,7.65
2022-08-18T15:08:46.953Z,7.70
2022-08-18T15:11:16.572Z,8.32
2022-08-18T15:13:46.494Z,7.72
2022-08-18T15:16:16.874Z,8.05
2022-08-18T15:18:46.499Z,8.20
2022-08-18T15:21:38.468Z,7.80
2022-08-18T15:24:25.800Z,7.68
2022-08-18T15:27:05.670Z,7.32
2022-08-18T15:29:35.390Z,8.23
2022-08-18T15:32:10.512Z,8.27
2022-08-18T15:34:47.076Z,7.97
2022-08-18T15:37:24.007Z,8.40
2022-08-18T15:40:01.176Z,8.80
2022-08-18T15:42:33.270Z,8.20
2022-08-18T15:45:11.598Z,7.80
2022-08-18T15:47:43.673Z,7.47
2022-08-18T15:50:25.911Z,7.90
2022-08-18T15:52:55.778Z,7.95
2022-08-18T15:55:25.086Z,7.72
2022-08-18T15:57:56.864Z,7.30
2022-08-18T16:00:27.648Z,7.90
2022-08-18T16:03:00.404Z,7.72
2022-08-18T16:05:29.978Z,7.70
2022-08-18T16:07:59.300Z,7.72
2022-08-18T16:10:28.413Z,7.80
2022-08-18T16:12:57.105Z,12.75
2022-08-18T16:15:26.716Z,9.43
2022-08-18T16:17:56.488Z,10.43
2022-08-18T16:20:26.507Z,7.40
2022-08-18T16:22:55.567Z,13.77
2022-08-18T16:25:24.370Z,10.60
2022-08-18T16:27:54.040Z,8.90
2022-08-18T16:30:24.229Z,13.30
2022-08-18T16:32:53.545Z,13.73
2022-08-18T16:35:22.581Z,9.90
2022-08-18T16:37:52.649Z,8.48
2022-08-18T16:40:21.849Z,10.00
2022-08-18T16:42:54.124Z,8.27
2022-08-18T16:45:23.384Z,7.95
2022-08-18T16:47:52.318Z,9.20
2022-08-18T16:50:23.037Z,8.63
2022-08-18T16:52:53.670Z,8.98
2022-08-18T16:55:22.338Z,9.15
2022-08-18T16:58:09.320Z,8.70
2022-08-18T17:00:56.556Z,9.02
2022-08-18T17:03:49.087Z,8.85
2022-08-18T17:06:18.891Z,9.38
2022-08-18T17:08:49.007Z,10.20
2022-08-18T17:11:18.612Z,9.23
2022-08-18T17:13:47.952Z,9.80
2022-08-18T17:16:17.409Z,9.48
2022-08-18T17:18:46.414Z,9.52
2022-08-18T17:21:16.021Z,9.32
2022-08-18T17:23:44.899Z,9.35
2022-08-18T17:26:18.931Z,9.68
2022-08-18T17:28:52.561Z,9.63
2022-08-18T17:31:24.670Z,10.00
2022-08-18T17:33:54.488Z,10.18
2022-08-18T17:36:25.553Z,10.13
2022-08-18T17:38:58.486Z,10.30
2022-08-18T17:41:28.335Z,10.00
2022-08-18T17:43:57.480Z,9.82
2022-08-18T17:46:27.671Z,9.73
2022-08-18T17:48:59.675Z,9.98
2022-08-18T17:51:42.516Z,10.55
2022-08-18T17:54:17.411Z,10.45
2022-08-18T17:56:48.253Z,10.57
2022-08-18T17:59:45.971Z,9.32
2022-08-18T18:02:28.522Z,10.00
2022-08-18T18:04:58.949Z,8.88
2022-08-18T18:07:28.818Z,9.07
2022-08-18T18:09:59.415Z,9.55
2022-08-18T18:12:31.008Z,10.23
2022-08-18T18:15:00.192Z,9.30
2022-08-18T18:17:29.760Z,9.70
2022-08-18T18:19:59.825Z,10.43
2022-08-18T18:22:30.007Z,9.95
2022-08-18T18:24:59.472Z,9.98
2022-08-18T18:27:31.130Z,10.27
2022-08-18T18:30:02.176Z,9.65
2022-08-18T18:32:32.356Z,9.73
2022-08-18T18:35:09.607Z,9.38
2022-08-18T18:37:42.512Z,9.75
2022-08-18T18:40:21.839Z,9.93
2022-08-18T18:42:51.856Z,9.48
2022-08-18T18:45:27.489Z,10.35
2022-08-18T18:48:07.780Z,10.65
2022-08-18T18:50:49.450Z,10.52
2022-08-18T18:53:29.881Z,10.25
2022-08-18T18:56:04.289Z,10.18
2022-08-18T18:58:40.275Z,10.15
2022-08-18T19:01:12.842Z,10.05
2022-08-18T19:03:45.747Z,10.48
2022-08-18T19:06:17.980Z,10.07
2022-08-18T19:08:51.849Z,10.75
2022-08-18T19:11:23.781Z,10.10
2022-08-18T19:13:57.071Z,10.95
2022-08-18T19:16:31.289Z,10.15
2022-08-18T19:19:36.127Z,10.55
2022-08-18T19:22:05.827Z,10.32
2022-08-18T19:24:38.810Z,10.63
2022-08-18T19:27:09.044Z,9.80
2022-08-18T19:29:42.605Z,10.15
2022-08-18T19:32:16.657Z,11.02
2022-08-18T19:34:51.469Z,10.93
2022-08-18T19:37:31.284Z,10.60
2022-08-18T19:40:04.407Z,10.93
2022-08-18T19:42:35.720Z,10.48
2022-08-18T19:45:16.267Z,10.18
2022-08-18T19:47:48.367Z,10.48
2022-08-18T19:50:18.365Z,11.35
2022-08-18T19:52:54.023Z,10.80
2022-08-18T19:55:33.035Z,10.43
2022-08-18T19:58:08.558Z,10.52
2022-08-18T20:00:45.711Z,9.55
2022-08-18T20:03:33.391Z,11.48
2022-08-18T20:06:33.271Z,10.25
2022-08-18T20:09:10.849Z,10.05
2022-08-18T20:11:46.488Z,10.68
2022-08-18T20:14:17.812Z,10.43
2022-08-18T20:17:07.350Z,11.00
2022-08-18T20:19:44.772Z,10.77
2022-08-18T20:22:29.100Z,10.88
2022-08-18T20:24:59.745Z,9.75
2022-08-18T20:27:35.601Z,10.13
2022-08-18T20:30:19.278Z,9.82
2022-08-18T20:33:06.904Z,9.77
2022-08-18T20:35:40.860Z,9.50
2022-08-18T20:38:15.509Z,10.85
2022-08-18T20:40:45.278Z,9.27
2022-08-18T20:43:30.529Z,9.25
2022-08-18T20:46:06.953Z,9.40
2022-08-18T20:48:41.766Z,9.23
2022-08-18T20:51:16.204Z,10.57
2022-08-18T20:53:53.531Z,9.98
2022-08-18T20:56:32.686Z,9.95
2022-08-18T20:59:16.618Z,10.15
2022-08-18T21:01:45.612Z,9.88
2022-08-18T21:04:15.454Z,10.25
2022-08-18T21:06:45.433Z,10.45
2022-08-18T21:09:18.739Z,10.40
2022-08-18T21:11:48.846Z,9.93
2022-08-18T21:14:27.119Z,10.48
2022-08-18T21:16:59.444Z,10.68
2022-08-18T21:19:30.446Z,10.70
2022-08-18T21:21:59.944Z,10.30
2022-08-18T21:24:30.164Z,9.77
2022-08-18T21:26:59.689Z,11.15
2022-08-18T21:29:39.185Z,10.65
2022-08-18T21:32:19.947Z,10.90
2022-08-18T21:34:49.848Z,10.52
2022-08-18T21:37:19.627Z,11.70
2022-08-18T21:39:49.667Z,11.20
2022-08-18T21:42:23.257Z,11.43
2022-08-18T21:44:54.938Z,10.50
2022-08-18T21:47:24.845Z,11.30
2022-08-18T21:50:04.216Z,11.00
2022-08-18T21:52:33.057Z,10.18
2022-08-18T21:55:03.693Z,11.30
2022-08-18T21:57:50.494Z,10.88
2022-08-18T22:00:23.843Z,11.20
2022-08-18T22:02:53.194Z,10.75
2022-08-18T22:05:58.378Z,10.60
2022-08-18T22:08:22.216Z,11.18
2022-08-18T22:11:41.843Z,11.93
2022-08-18T22:14:17.060Z,11.07
2022-08-18T22:16:46.433Z,10.73
2022-08-18T22:19:24.844Z,11.43
2022-08-18T22:22:00.427Z,10.52
2022-08-18T22:24:30.894Z,11.25
2022-08-18T22:27:12.296Z,11.13
2022-08-18T22:29:47.878Z,10.27
2022-08-18T22:32:16.369Z,10.10
2022-08-18T22:34:45.062Z,10.50
2022-08-18T22:37:19.296Z,11.52
2022-08-18T22:39:49.021Z,11.23
2022-08-18T22:42:18.386Z,10.23
2022-08-18T22:44:46.946Z,9.60
2022-08-18T22:47:15.533Z,10.20
2022-08-18T22:49:45.301Z,10.52
2022-08-18T22:52:17.513Z,9.85
2022-08-18T22:54:45.986Z,10.55
2022-08-18T22:57:18.153Z,11.02
2022-08-18T22:59:52.109Z,10.07
2022-08-18T23:02:21.965Z,9.75
2022-08-18T23:04:50.973Z,10.80
2022-08-18T23:07:23.569Z,11.25
2022-08-18T23:09:52.054Z,10.20
2022-08-18T23:12:20.587Z,11.65
2022-08-18T23:14:49.575Z,11.77
2022-08-18T23:17:18.318Z,11.88
2022-08-18T23:19:47.044Z,12.30
2022-08-18T23:22:16.109Z,11.80
2022-08-18T23:24:45.941Z,12.23
2022-08-18T23:27:14.756Z,10.98
2022-08-18T23:29:43.228Z,11.98
2022-08-18T23:32:11.940Z,10.80
2022-08-18T23:34:40.496Z,11.80
2022-08-18T23:37:09.820Z,11.90
2022-08-18T23:39:39.640Z,12.35
2022-08-18T23:42:13.267Z,12.55
2022-08-18T23:44:42.304Z,12.73
2022-08-18T23:47:11.124Z,12.02
2022-08-18T23:49:39.629Z,12.45
2022-08-18T23:52:09.594Z,12.63
2022-08-18T23:54:38.518Z,11.98
2022-08-18T23:57:07.321Z,13.05
2022-08-18T23:59:37.200Z,13.35
